Quincy, IL

6:53 AM CDT on May 25, 2015 (GMT -0500)
Quincy Regional-Baldwin | | Change Station
CLOSE
Current Station
Airport
Location: Quincy,
Elevation: 768 ft
Nearby Weather Stations

Elev 768 ft 39.94 °N, 91.19 °W | Updated 29 minutes ago

Overcast
Overcast
64 °F
Feels Like 64 °F
N
14
Wind Variable Wind from SW

Today
High -- | Low -- °F
--% Chance of Precip.
Yesterday
High -- | Low -- °F
Precip. -- in
5:42 AM 8:22 PM
Waxing Crescent, 48% visible
Pressure 29.87 in
Visibility 3.0 miles
Clouds Mostly Cloudy 600 ft
Mostly Cloudy 1100 ft
Overcast 1600 ft
Dew Point 63 °F
Humidity 96%
Rainfall 0.30 in
Snow Depth Not available.
UV 0 out of 12
Pollen 7.90 out of 12
Air Quality Not available.
Flu Activity Sporadic
SPECI KUIN 251124Z AUTO 22012KT 3SM -RA BR BKN006 BKN011 OVC016 18/17 A2987 RMK AO2 P0002 T01780172

More Conditions Fewer Conditions

Pressure 29.87 in
Visibility 3.0 miles
Clouds Mostly Cloudy 600 ft
Mostly Cloudy 1100 ft
Overcast 1600 ft
Dew Point 63 °F
Humidity 96%
Rainfall 0.30 in
Snow Depth Not available.
UV 0 out of 12
Pollen 7.90 out of 12
Air Quality Not available.
Flu Activity Sporadic
SPECI KUIN 251124Z AUTO 22012KT 3SM -RA BR BKN006 BKN011 OVC016 18/17 A2987 RMK AO2 P0002 T01780172

More Conditions Fewer Conditions

10-Day Weather Forecast

Almanac

Astronomy

May. 25, 2015 Rise Set
Actual Time
Civil Twilight
Nautical Twilight
Astronomical Twilight
Moon
Length of Visible Light
Length of Day
Tomorrow will be .
, % of the Moon is Illuminated

Today's Extremes

State Highs State Lows

Community

WunderPhotos

Upload Photos

1,823,981 photos uploaded!

WunderBlogs® & News

Nearby

Air Quality

  Air Quality AQ Index Pollutant
Not available.

Snow Depth

Station Depth Elevation

Earthquake Activity

City Distance Mag. Time & Date
Minimum magnitude displayed is 2.5.

Coastal Water Temperatures

Place Temperature

Stations

Nearby Weather Stations

Station Location Temp. Windchill Dew Point Humidity Wind Precip. Elev Updated Type